createdAt,value
2022-08-02T00:01:01.579Z,18.82
2022-08-02T00:03:29.438Z,18.76
2022-08-02T00:05:58.730Z,18.70
2022-08-02T00:08:26.631Z,18.69
2022-08-02T00:10:56.602Z,18.66
2022-08-02T00:13:24.942Z,18.65
2022-08-02T00:15:52.926Z,18.58
2022-08-02T00:18:20.928Z,18.54
2022-08-02T00:20:49.498Z,18.48
2022-08-02T00:23:17.358Z,18.46
2022-08-02T00:25:55.220Z,18.45
2022-08-02T00:28:27.907Z,18.44
2022-08-02T00:30:59.592Z,18.46
2022-08-02T00:34:26.361Z,18.53
2022-08-02T00:36:15.318Z,18.62
2022-08-02T00:38:43.242Z,18.67
2022-08-02T00:41:19.460Z,18.69
2022-08-02T00:43:47.500Z,18.71
2022-08-02T00:46:15.879Z,18.72
2022-08-02T00:48:46.869Z,18.74
2022-08-02T00:51:15.480Z,18.68
2022-08-02T00:53:43.225Z,18.61
2022-08-02T00:56:11.122Z,18.54
2022-08-02T00:58:39.048Z,18.52
2022-08-02T01:01:06.865Z,18.49
2022-08-02T01:03:37.859Z,18.50
2022-08-02T01:06:14.374Z,18.47
2022-08-02T01:08:43.762Z,18.48
2022-08-02T01:11:12.211Z,18.51
2022-08-02T01:13:40.510Z,18.46
2022-08-02T01:16:13.311Z,18.54
2022-08-02T01:18:42.357Z,18.48
2022-08-02T01:21:19.181Z,18.54
2022-08-02T01:24:02.506Z,18.52
2022-08-02T01:27:01.094Z,18.51
2022-08-02T01:29:34.751Z,18.56
2022-08-02T01:32:15.274Z,18.65
2022-08-02T01:34:47.370Z,18.69
2022-08-02T01:37:43.263Z,18.76
2022-08-02T01:40:12.614Z,18.81
2022-08-02T01:42:45.366Z,18.68
2022-08-02T01:45:13.133Z,18.67
2022-08-02T01:47:40.982Z,18.67
2022-08-02T01:50:09.242Z,18.75
2022-08-02T01:52:38.165Z,18.70
2022-08-02T01:55:18.504Z,18.65
2022-08-02T01:57:51.697Z,18.69
2022-08-02T02:00:20.365Z,18.75
2022-08-02T02:02:49.462Z,18.77
2022-08-02T02:05:19.020Z,18.78
2022-08-02T02:07:47.399Z,18.76
2022-08-02T02:10:17.781Z,18.67
2022-08-02T02:12:48.136Z,18.61
2022-08-02T02:15:15.893Z,18.54
2022-08-02T02:17:50.550Z,18.55
2022-08-02T02:20:34.182Z,18.54
2022-08-02T02:23:03.147Z,18.57
2022-08-02T02:25:36.084Z,18.52
2022-08-02T02:28:14.057Z,18.49
2022-08-02T02:30:43.455Z,18.49
2022-08-02T02:33:11.226Z,18.50
2022-08-02T02:35:41.223Z,18.55
2022-08-02T02:38:11.950Z,18.55
2022-08-02T02:40:40.604Z,18.55
2022-08-02T02:43:09.754Z,18.52
2022-08-02T02:45:38.498Z,18.50
2022-08-02T02:48:06.717Z,18.54
2022-08-02T02:50:37.763Z,18.61
2022-08-02T02:53:07.985Z,18.63
2022-08-02T02:55:37.351Z,18.59
2022-08-02T02:58:05.883Z,18.63
2022-08-02T03:00:53.019Z,18.74
2022-08-02T03:03:22.095Z,18.76
2022-08-02T03:05:51.001Z,18.78
2022-08-02T03:08:19.697Z,18.85
2022-08-02T03:11:58.815Z,18.90
2022-08-02T03:15:38.167Z,18.89
2022-08-02T03:18:10.827Z,18.92
2022-08-02T03:20:39.567Z,18.89
2022-08-02T03:23:09.835Z,18.90
2022-08-02T03:25:38.060Z,18.93
2022-08-02T03:28:05.909Z,18.94
2022-08-02T03:30:34.073Z,18.92
2022-08-02T03:33:11.709Z,18.93
2022-08-02T03:35:40.954Z,18.94
2022-08-02T03:38:08.928Z,18.98
2022-08-02T03:40:37.341Z,18.99
2022-08-02T03:43:05.778Z,18.98
2022-08-02T03:45:33.664Z,19.08
2022-08-02T03:48:01.547Z,19.16
2022-08-02T03:50:33.982Z,19.15
2022-08-02T03:53:02.105Z,19.22
2022-08-02T03:55:32.515Z,19.27
2022-08-02T03:58:00.298Z,19.31
2022-08-02T04:00:28.187Z,19.33
2022-08-02T04:02:56.466Z,19.42
2022-08-02T04:05:25.221Z,19.52
2022-08-02T04:08:34.079Z,19.50
2022-08-02T04:11:00.464Z,19.55
2022-08-02T04:13:37.239Z,19.60
2022-08-02T04:16:10.481Z,19.68
2022-08-02T04:18:46.404Z,19.80
2022-08-02T04:21:15.635Z,19.77
2022-08-02T04:23:46.321Z,19.86
2022-08-02T04:26:14.597Z,19.96
2022-08-02T04:28:43.384Z,20.04
2022-08-02T04:31:11.440Z,20.09
2022-08-02T04:33:40.676Z,20.34
2022-08-02T04:36:08.778Z,21.00
2022-08-02T04:38:37.061Z,21.64
2022-08-02T04:41:05.532Z,21.28
2022-08-02T04:46:56.917Z,21.73
2022-08-02T04:49:25.304Z,21.88
2022-08-02T04:51:53.636Z,22.10
2022-08-02T04:54:31.863Z,22.43
2022-08-02T04:57:53.404Z,22.92
2022-08-02T05:00:21.592Z,23.69
2022-08-02T05:07:24.535Z,25.12
2022-08-02T05:10:14.902Z,24.79
2022-08-02T05:12:49.474Z,24.37
2022-08-02T05:15:24.293Z,24.67
2022-08-02T05:17:52.518Z,25.45
2022-08-02T05:20:23.810Z,25.69
2022-08-02T05:22:53.745Z,25.60
2022-08-02T05:25:22.755Z,25.27
2022-08-02T05:27:53.396Z,26.02
2022-08-02T05:30:26.716Z,26.01
2022-08-02T05:32:54.819Z,25.93
2022-08-02T05:35:23.513Z,26.16
2022-08-02T05:37:51.845Z,25.84
2022-08-02T05:40:25.950Z,26.15
2022-08-02T05:42:55.021Z,25.91
2022-08-02T05:45:23.752Z,26.46
2022-08-02T05:47:52.052Z,26.36
2022-08-02T05:50:20.068Z,25.63
2022-08-02T05:52:52.360Z,25.64
2022-08-02T05:55:32.967Z,26.34
2022-08-02T05:58:09.186Z,25.21
2022-08-02T06:00:37.218Z,24.62
2022-08-02T06:03:25.945Z,24.42
2022-08-02T06:06:00.578Z,24.24
2022-08-02T06:08:38.392Z,24.00
2022-08-02T06:11:06.751Z,23.91
2022-08-02T06:13:34.424Z,23.97
2022-08-02T06:16:02.648Z,23.93
2022-08-02T06:18:30.670Z,23.57
2022-08-02T06:22:33.729Z,23.60
2022-08-02T06:23:58.089Z,23.69
2022-08-02T06:26:27.934Z,23.72
2022-08-02T06:28:56.703Z,23.83
2022-08-02T06:31:24.455Z,23.81
2022-08-02T06:33:52.486Z,23.82
2022-08-02T06:36:56.686Z,23.84
2022-08-02T06:39:36.681Z,23.89
2022-08-02T06:42:08.382Z,24.12
2022-08-02T06:44:47.921Z,24.06
2022-08-02T06:47:18.555Z,24.02
2022-08-02T06:49:52.088Z,24.14
2022-08-02T06:52:28.728Z,24.32
2022-08-02T06:55:01.431Z,24.41
2022-08-02T06:57:29.661Z,24.41
2022-08-02T06:59:58.565Z,24.48
2022-08-02T07:02:26.348Z,24.44
2022-08-02T07:04:54.706Z,24.77
2022-08-02T07:10:14.574Z,25.08
2022-08-02T07:12:42.329Z,25.27
2022-08-02T07:15:10.473Z,25.28
2022-08-02T07:17:38.186Z,25.46
2022-08-02T07:20:06.654Z,25.51
2022-08-02T07:22:35.217Z,25.51
2022-08-02T07:25:03.462Z,25.21
2022-08-02T07:27:31.325Z,25.44
2022-08-02T07:29:59.362Z,25.37
2022-08-02T07:32:30.567Z,25.42
2022-08-02T07:34:58.515Z,25.42
2022-08-02T07:37:52.977Z,25.63
2022-08-02T07:40:20.629Z,25.73
2022-08-02T07:43:06.796Z,25.55
2022-08-02T07:45:35.705Z,25.78
2022-08-02T07:48:04.101Z,26.07
2022-08-02T07:50:31.889Z,25.62
2022-08-02T07:52:59.980Z,25.40
2022-08-02T07:55:39.526Z,25.47
2022-08-02T07:58:11.071Z,25.46
2022-08-02T08:00:44.432Z,25.48
2022-08-02T08:03:12.196Z,25.43
2022-08-02T08:05:40.003Z,25.53
2022-08-02T08:08:10.127Z,25.55
2022-08-02T08:10:43.460Z,25.71
2022-08-02T08:13:11.418Z,26.20
2022-08-02T08:15:39.229Z,26.51
2022-08-02T08:18:07.083Z,26.54
2022-08-02T08:20:34.982Z,26.55
2022-08-02T08:23:02.794Z,26.28
2022-08-02T08:25:30.601Z,26.53
2022-08-02T08:27:58.640Z,26.79
2022-08-02T08:30:26.476Z,26.87
2022-08-02T08:32:54.251Z,26.84
2022-08-02T08:35:22.424Z,26.91
2022-08-02T08:37:50.123Z,27.00
2022-08-02T08:40:19.899Z,27.00
2022-08-02T08:42:48.068Z,26.88
2022-08-02T08:45:18.277Z,26.96
2022-08-02T08:47:48.814Z,27.02
2022-08-02T08:50:25.294Z,27.12
2022-08-02T08:53:04.969Z,27.31
2022-08-02T08:55:35.592Z,27.22
2022-08-02T08:58:04.387Z,27.62
2022-08-02T09:00:33.085Z,27.79
2022-08-02T09:03:03.662Z,27.97
2022-08-02T09:05:32.252Z,27.99
2022-08-02T09:08:00.008Z,27.89
2022-08-02T09:10:40.117Z,27.82
2022-08-02T09:13:38.980Z,27.79
2022-08-02T09:16:11.659Z,27.20
2022-08-02T09:18:45.954Z,27.36
2022-08-02T09:21:16.156Z,27.79
2022-08-02T09:23:50.938Z,27.70
2022-08-02T09:26:19.886Z,27.86
2022-08-02T09:28:50.421Z,27.36
2022-08-02T09:31:20.528Z,26.99
2022-08-02T09:33:55.779Z,26.94
2022-08-02T09:36:23.889Z,27.01
2022-08-02T09:39:02.126Z,27.29
2022-08-02T09:41:31.429Z,27.50
2022-08-02T09:44:05.261Z,27.65
2022-08-02T09:46:39.107Z,27.38
2022-08-02T09:49:14.301Z,27.37
2022-08-02T09:51:54.952Z,27.18
2022-08-02T09:54:28.883Z,27.42
2022-08-02T09:56:58.360Z,27.44
2022-08-02T09:59:27.093Z,27.20
2022-08-02T10:01:58.964Z,27.34
2022-08-02T10:04:31.718Z,27.47
2022-08-02T10:07:04.112Z,27.45
2022-08-02T10:09:32.779Z,27.42
2022-08-02T10:12:01.288Z,27.56
2022-08-02T10:14:29.428Z,27.53
2022-08-02T10:16:57.939Z,27.56
2022-08-02T10:20:00.337Z,27.73
2022-08-02T10:22:15.430Z,27.86
2022-08-02T10:24:47.979Z,27.99
2022-08-02T10:27:20.813Z,28.02
2022-08-02T10:29:53.630Z,28.35
2022-08-02T10:32:35.019Z,28.64
2022-08-02T10:35:19.421Z,28.86
2022-08-02T10:37:55.335Z,28.78
2022-08-02T10:40:28.765Z,28.88
2022-08-02T10:43:00.973Z,28.93
2022-08-02T10:45:29.402Z,29.24
2022-08-02T10:48:18.672Z,29.46
2022-08-02T10:50:46.470Z,29.39
2022-08-02T10:53:26.751Z,29.02
2022-08-02T10:55:55.991Z,28.79
2022-08-02T10:58:26.159Z,29.24
2022-08-02T11:00:54.326Z,29.56
2022-08-02T11:03:40.320Z,30.23
2022-08-02T11:06:25.815Z,29.62
2022-08-02T11:09:33.738Z,29.24
2022-08-02T11:12:12.525Z,29.40
2022-08-02T11:14:45.022Z,29.49
2022-08-02T11:17:18.817Z,29.75
2022-08-02T11:20:20.496Z,29.76
2022-08-02T11:22:48.788Z,29.84
2022-08-02T11:25:22.477Z,29.29
2022-08-02T11:27:59.505Z,28.78
2022-08-02T11:30:27.547Z,28.32
2022-08-02T11:32:59.145Z,28.19
2022-08-02T11:35:39.726Z,28.13
2022-08-02T11:38:18.201Z,28.11
2022-08-02T11:40:46.516Z,28.13
2022-08-02T11:43:21.238Z,28.21
2022-08-02T11:45:53.495Z,28.24
2022-08-02T11:48:39.843Z,27.66
2022-08-02T11:51:12.362Z,28.09
2022-08-02T11:53:53.635Z,28.54
2022-08-02T11:56:32.803Z,28.62
2022-08-02T11:59:04.283Z,28.45
2022-08-02T12:01:35.237Z,28.32
2022-08-02T12:04:05.179Z,28.46
2022-08-02T12:06:33.323Z,28.74
2022-08-02T12:09:06.859Z,28.88
2022-08-02T12:11:48.093Z,29.04
2022-08-02T12:14:15.893Z,29.40
2022-08-02T12:17:02.052Z,29.32
2022-08-02T12:19:29.886Z,29.30
2022-08-02T12:22:16.600Z,29.26
2022-08-02T12:24:50.262Z,29.38
2022-08-02T12:27:38.268Z,28.92
2022-08-02T12:30:27.906Z,28.79
2022-08-02T12:33:13.116Z,29.03
2022-08-02T12:35:41.028Z,29.00
2022-08-02T12:38:12.256Z,28.75
2022-08-02T12:40:39.812Z,28.97
2022-08-02T12:43:08.978Z,29.72
2022-08-02T12:45:53.156Z,30.25
2022-08-02T12:48:37.430Z,30.50
2022-08-02T12:51:55.806Z,30.67
2022-08-02T12:54:26.870Z,31.05
2022-08-02T12:57:19.677Z,31.34
2022-08-02T12:59:53.285Z,30.96
2022-08-02T13:02:21.623Z,30.38
2022-08-02T13:04:50.524Z,31.04
2022-08-02T13:07:19.352Z,31.50
2022-08-02T13:09:48.589Z,31.73
2022-08-02T13:12:17.227Z,31.10
2022-08-02T13:14:45.595Z,31.70
2022-08-02T13:17:13.232Z,32.05
2022-08-02T13:19:42.410Z,32.19
2022-08-02T13:22:10.699Z,32.56
2022-08-02T13:24:54.986Z,32.95
2022-08-02T13:27:26.366Z,32.64
2022-08-02T13:29:54.817Z,33.00
2022-08-02T13:32:22.854Z,33.35
2022-08-02T13:34:50.684Z,33.47
2022-08-02T13:37:18.332Z,33.55
2022-08-02T13:40:05.690Z,34.17
2022-08-02T13:42:33.967Z,33.91
2022-08-02T13:45:12.109Z,33.51
2022-08-02T13:47:57.500Z,33.29
2022-08-02T13:50:30.437Z,33.18
2022-08-02T13:52:58.120Z,33.23
2022-08-02T13:55:26.322Z,33.10
2022-08-02T13:57:54.452Z,33.43
2022-08-02T14:00:35.705Z,33.18
2022-08-02T14:03:07.495Z,33.39
2022-08-02T14:05:48.063Z,33.15
2022-08-02T14:08:20.091Z,33.53
2022-08-02T14:10:48.220Z,32.44
2022-08-02T14:13:16.393Z,32.79
2022-08-02T14:15:44.276Z,33.10
2022-08-02T14:18:12.388Z,33.21
2022-08-02T14:20:39.996Z,33.40
2022-08-02T14:23:07.838Z,33.65
2022-08-02T14:25:35.644Z,33.37
2022-08-02T14:28:04.520Z,33.25
2022-08-02T14:30:32.191Z,33.16
2022-08-02T14:32:59.909Z,32.52
2022-08-02T14:35:27.601Z,31.51
2022-08-02T14:37:55.284Z,31.01
2022-08-02T14:40:28.062Z,30.73
2022-08-02T14:43:02.532Z,30.32
2022-08-02T14:45:41.044Z,30.09
2022-08-02T14:48:11.193Z,30.05
2022-08-02T14:50:39.013Z,30.04
2022-08-02T14:53:06.667Z,29.65
2022-08-02T14:55:41.757Z,29.74
2022-08-02T14:58:10.647Z,29.88
2022-08-02T15:00:40.924Z,29.67
2022-08-02T15:03:10.909Z,29.33
2022-08-02T15:05:39.520Z,29.34
2022-08-02T15:08:07.396Z,29.25
2022-08-02T15:10:35.313Z,29.71
2022-08-02T15:13:02.954Z,30.12
2022-08-02T15:15:30.753Z,30.32
2022-08-02T15:17:58.457Z,30.19
2022-08-02T15:20:28.037Z,30.09
2022-08-02T15:22:55.736Z,30.01
2022-08-02T15:25:23.640Z,29.70
2022-08-02T15:27:51.318Z,29.58
2022-08-02T15:30:19.602Z,29.56
2022-08-02T15:32:52.561Z,28.84
2022-08-02T15:35:20.458Z,28.94
2022-08-02T15:37:48.057Z,28.74
2022-08-02T15:40:15.738Z,28.28
2022-08-02T15:42:44.484Z,27.90
2022-08-02T15:45:14.544Z,28.01
2022-08-02T15:47:48.027Z,27.93
2022-08-02T15:50:18.810Z,27.86
2022-08-02T15:52:46.617Z,27.78
2022-08-02T15:55:14.460Z,27.77
2022-08-02T15:57:42.123Z,27.60
2022-08-02T16:00:18.084Z,27.50
2022-08-02T16:02:47.627Z,27.34
2022-08-02T16:05:18.327Z,27.16
2022-08-02T16:07:46.644Z,27.04
2022-08-02T16:10:15.320Z,26.96
2022-08-02T16:12:42.996Z,26.93
2022-08-02T16:15:10.909Z,26.94
2022-08-02T16:17:48.779Z,26.75
2022-08-02T16:20:22.983Z,26.59
2022-08-02T16:22:50.632Z,26.26
2022-08-02T16:25:18.272Z,26.11
2022-08-02T16:28:06.330Z,26.06
2022-08-02T16:30:34.090Z,25.69
2022-08-02T16:33:02.034Z,25.62
2022-08-02T16:35:29.905Z,25.59
2022-08-02T16:37:57.665Z,25.34
2022-08-02T16:40:25.491Z,25.18
2022-08-02T16:42:53.086Z,24.88
2022-08-02T16:45:21.399Z,24.59
2022-08-02T16:47:56.170Z,24.39
2022-08-02T16:50:28.670Z,24.14
2022-08-02T16:52:57.835Z,24.02
2022-08-02T16:55:30.506Z,23.92
2022-08-02T16:57:59.372Z,23.74
2022-08-02T17:00:27.448Z,23.65
2022-08-02T17:02:59.570Z,23.49
2022-08-02T17:05:37.841Z,23.40
2022-08-02T17:08:19.165Z,23.26
2022-08-02T17:10:46.889Z,23.12
2022-08-02T17:13:14.688Z,23.08
2022-08-02T17:16:08.620Z,22.94
2022-08-02T17:18:30.662Z,22.71
2022-08-02T17:20:58.586Z,22.64
2022-08-02T17:24:03.998Z,22.51
2022-08-02T17:26:14.157Z,22.48
2022-08-02T17:29:06.913Z,22.31
2022-08-02T17:34:18.521Z,21.99
2022-08-02T17:36:54.630Z,21.94
2022-08-02T17:39:23.085Z,21.93
2022-08-02T17:41:50.874Z,21.83
2022-08-02T17:44:37.507Z,21.80
2022-08-02T17:47:08.552Z,21.86
2022-08-02T17:49:55.528Z,21.90
2022-08-02T17:52:51.197Z,21.85
2022-08-02T17:55:14.596Z,21.78
2022-08-02T17:57:57.769Z,21.83
2022-08-02T18:00:36.616Z,21.91
2022-08-02T18:03:06.074Z,21.90
2022-08-02T18:08:24.574Z,21.81
2022-08-02T18:10:53.745Z,21.83
2022-08-02T18:13:22.162Z,21.81
2022-08-02T18:15:50.554Z,21.80
2022-08-02T18:18:19.255Z,21.79
2022-08-02T18:20:58.270Z,21.71
2022-08-02T18:23:26.164Z,21.79
2022-08-02T18:25:55.397Z,21.80
2022-08-02T18:28:26.627Z,21.81
2022-08-02T18:30:54.638Z,21.75
2022-08-02T18:33:55.093Z,21.66
2022-08-02T18:36:10.372Z,21.66
2022-08-02T18:38:52.113Z,21.48
2022-08-02T18:41:21.536Z,21.45
2022-08-02T18:43:50.166Z,21.43
2022-08-02T18:46:20.212Z,21.43
2022-08-02T18:48:48.372Z,21.46
2022-08-02T18:51:18.768Z,21.38
2022-08-02T18:53:51.373Z,21.27
2022-08-02T18:56:24.167Z,21.12
2022-08-02T18:58:54.443Z,21.02
2022-08-02T19:01:31.870Z,21.02
2022-08-02T19:04:04.871Z,21.07
2022-08-02T19:06:33.003Z,21.08
2022-08-02T19:09:11.277Z,20.97
2022-08-02T19:11:47.456Z,21.02
2022-08-02T19:14:32.468Z,20.96
2022-08-02T19:17:15.702Z,20.96
2022-08-02T19:19:44.430Z,20.88
2022-08-02T19:22:17.319Z,20.85
2022-08-02T19:24:47.897Z,20.82
2022-08-02T19:27:15.786Z,20.75
2022-08-02T19:29:48.901Z,20.79
2022-08-02T19:32:42.888Z,20.67
2022-08-02T19:35:19.711Z,20.64
2022-08-02T19:38:11.430Z,20.56
2022-08-02T19:40:42.958Z,20.66
2022-08-02T19:44:26.416Z,20.65
2022-08-02T19:46:32.049Z,20.61
2022-08-02T19:49:20.319Z,20.62
2022-08-02T19:51:55.601Z,20.57
2022-08-02T19:54:53.948Z,20.62
2022-08-02T19:57:13.652Z,20.52
2022-08-02T19:59:41.850Z,20.46
2022-08-02T20:02:10.176Z,20.41
2022-08-02T20:04:39.791Z,20.44
2022-08-02T20:07:08.365Z,20.37
2022-08-02T20:09:46.922Z,20.32
2022-08-02T20:12:15.639Z,20.34
2022-08-02T20:14:50.785Z,20.29
2022-08-02T20:17:20.713Z,20.27
2022-08-02T20:19:49.010Z,20.31
2022-08-02T20:22:17.195Z,20.45
2022-08-02T20:24:46.864Z,20.57
2022-08-02T20:27:21.208Z,20.63
2022-08-02T20:29:51.722Z,20.70
2022-08-02T20:32:22.872Z,20.75
2022-08-02T20:34:50.952Z,20.78
2022-08-02T20:37:59.722Z,20.86
2022-08-02T20:40:16.779Z,20.88
2022-08-02T20:42:47.615Z,20.88
2022-08-02T20:45:19.433Z,20.86
2022-08-02T20:47:49.781Z,20.76
2022-08-02T20:50:37.351Z,20.82
2022-08-02T20:53:05.295Z,20.89
2022-08-02T20:55:35.791Z,20.90
2022-08-02T20:58:04.705Z,20.97
2022-08-02T21:00:33.477Z,20.96
2022-08-02T21:03:02.746Z,20.97
2022-08-02T21:05:55.227Z,21.00
2022-08-02T21:08:21.390Z,20.97
2022-08-02T21:10:51.895Z,20.94
2022-08-02T21:13:23.096Z,21.00
2022-08-02T21:15:56.795Z,20.92
2022-08-02T21:18:35.044Z,20.91
2022-08-02T21:21:17.463Z,20.94
2022-08-02T21:23:48.830Z,20.98
2022-08-02T21:26:28.532Z,21.01
2022-08-02T21:29:01.038Z,21.01
2022-08-02T21:31:35.683Z,20.98
2022-08-02T21:34:21.838Z,20.97
2022-08-02T21:36:50.531Z,20.91
2022-08-02T21:39:18.453Z,20.88
2022-08-02T21:41:47.389Z,20.84
2022-08-02T21:44:16.579Z,20.75
2022-08-02T21:46:49.420Z,20.73
2022-08-02T21:49:18.723Z,20.66
2022-08-02T21:51:49.252Z,20.61
2022-08-02T21:54:20.412Z,20.60
2022-08-02T21:56:52.292Z,20.55
2022-08-02T21:59:26.227Z,20.50
2022-08-02T22:01:56.760Z,20.42
2022-08-02T22:04:26.197Z,20.37
2022-08-02T22:06:55.405Z,20.24
2022-08-02T22:09:42.368Z,20.16
2022-08-02T22:12:16.675Z,20.09
2022-08-02T22:14:54.834Z,20.10
2022-08-02T22:17:49.955Z,20.07
2022-08-02T22:20:18.285Z,20.01
2022-08-02T22:22:50.511Z,20.00
2022-08-02T22:25:26.328Z,19.93
2022-08-02T22:28:35.761Z,19.88
2022-08-02T22:30:52.636Z,19.82
2022-08-02T22:33:46.691Z,19.88
2022-08-02T22:36:28.432Z,19.86
2022-08-02T22:38:56.537Z,19.80
2022-08-02T22:41:24.403Z,19.74
2022-08-02T22:43:52.174Z,19.63
2022-08-02T22:46:20.187Z,19.72
2022-08-02T22:48:54.987Z,19.86
2022-08-02T22:51:24.958Z,19.94
2022-08-02T22:53:57.268Z,19.95
2022-08-02T22:56:25.159Z,19.92
2022-08-02T22:58:38.929Z,22.12
2022-08-02T22:59:00.437Z,21.82
2022-08-02T23:01:40.822Z,19.87
2022-08-02T23:04:08.913Z,19.84
2022-08-02T23:06:36.653Z,19.85
2022-08-02T23:09:04.543Z,19.80
2022-08-02T23:11:32.453Z,19.80
2022-08-02T23:14:00.344Z,19.75
2022-08-02T23:16:46.627Z,19.77
2022-08-02T23:19:32.777Z,19.76
2022-08-02T23:22:01.319Z,19.79
2022-08-02T23:24:33.656Z,19.81
2022-08-02T23:27:01.494Z,19.74
2022-08-02T23:29:29.609Z,19.75
2022-08-02T23:31:57.622Z,19.77
2022-08-02T23:34:26.997Z,19.78
2022-08-02T23:36:54.654Z,19.78
2022-08-02T23:39:23.654Z,19.81
2022-08-02T23:41:55.185Z,19.82
2022-08-02T23:44:26.887Z,19.81
2022-08-02T23:46:55.426Z,19.77
2022-08-02T23:49:23.567Z,19.72
2022-08-02T23:51:51.417Z,19.70
2022-08-02T23:54:19.817Z,19.65
2022-08-02T23:56:47.782Z,19.62
2022-08-02T23:59:15.790Z,19.59
